Time;durP1;ratioP1;P1;durP2;ratioP2;P2;SDS_P1;SDS_P2;PMS_P1;PMS_P2;Temp;Humidity;BMP_temperature;BMP_pressure;BME280_temperature;BME280_humidity;BME280_pressure;Samples;Min_cycle;Max_cycle;Signal;HPM_P1;HPM_P2
2022/07/09 00:00:44;;;;;;;1.75;1.10;;;14.80;8.10;;;;;;5008581;28;34388;-75
2022/07/09 00:03:10;;;;;;;1.05;1.00;;;14.70;8.20;;;;;;5023511;28;33598;-76
2022/07/09 00:05:36;;;;;;;2.33;1.02;;;14.70;8.20;;;;;;5057718;28;34066;-76
2022/07/09 00:08:03;;;;;;;1.27;1.17;;;14.60;8.10;;;;;;5024488;28;34187;-76
2022/07/09 00:10:29;;;;;;;0.77;0.70;;;14.60;8.20;;;;;;5024216;28;34099;-76
2022/07/09 00:12:54;;;;;;;1.00;0.88;;;14.60;8.30;;;;;;5025601;28;34262;-76
2022/07/09 00:15:20;;;;;;;0.80;0.73;;;14.60;8.30;;;;;;5036795;28;34593;-75
2022/07/09 00:17:46;;;;;;;1.35;1.25;;;14.50;8.40;;;;;;4988153;28;35631;-76
2022/07/09 00:20:12;;;;;;;0.90;0.90;;;14.50;8.50;;;;;;5004197;28;34207;-76
2022/07/09 00:22:38;;;;;;;0.80;0.80;;;14.50;8.60;;;;;;5037714;27;34287;-76
2022/07/09 00:25:04;;;;;;;1.30;1.20;;;14.50;8.70;;;;;;4991690;28;34007;-76
2022/07/09 00:27:30;;;;;;;1.75;1.00;;;14.50;8.80;;;;;;5003945;28;34434;-76
2022/07/09 00:29:56;;;;;;;3.67;1.10;;;14.40;9.20;;;;;;4988032;28;34210;-76
2022/07/09 00:32:23;;;;;;;2.17;1.30;;;14.40;8.80;;;;;;5004514;28;34017;-76
2022/07/09 00:34:49;;;;;;;1.48;1.10;;;14.40;9.00;;;;;;5004571;28;34111;-76
2022/07/09 00:37:15;;;;;;;1.95;1.10;;;14.40;9.00;;;;;;4987072;28;36347;-76
2022/07/09 00:39:41;;;;;;;1.45;1.10;;;14.30;9.10;;;;;;5004645;28;34195;-75
2022/07/09 00:42:09;;;;;;;1.45;1.33;;;14.30;9.20;;;;;;5036872;28;34301;-75
2022/07/09 00:44:35;;;;;;;2.03;0.93;;;14.30;9.50;;;;;;5039213;27;34223;-76
2022/07/09 00:47:04;;;;;;;4.00;1.50;;;14.30;9.40;;;;;;5003781;28;36622;-76
2022/07/09 00:49:31;;;;;;;2.05;1.13;;;14.30;9.40;;;;;;5004467;28;34171;-75
2022/07/09 00:51:57;;;;;;;1.25;0.95;;;14.20;9.30;;;;;;4988099;28;34117;-75
2022/07/09 00:54:24;;;;;;;1.52;1.00;;;14.20;9.40;;;;;;4991626;28;34096;-76
2022/07/09 00:56:53;;;;;;;0.95;0.93;;;14.10;9.40;;;;;;5036926;28;35099;-76
2022/07/09 00:59:20;;;;;;;1.75;1.10;;;14.10;9.80;;;;;;5036837;28;34522;-75
2022/07/09 01:01:48;;;;;;;1.30;1.20;;;14.10;9.50;;;;;;5037383;28;34117;-75
2022/07/09 01:04:14;;;;;;;1.63;1.08;;;14.00;9.60;;;;;;5036673;28;34083;-76
2022/07/09 01:06:40;;;;;;;1.40;1.10;;;14.00;9.60;;;;;;5036250;28;35564;-75
2022/07/09 01:09:07;;;;;;;1.30;1.20;;;14.00;9.70;;;;;;5037339;28;34157;-75
2022/07/09 01:11:33;;;;;;;1.30;1.10;;;14.00;10.30;;;;;;5037110;27;34171;-76
2022/07/09 01:13:59;;;;;;;1.20;1.10;;;14.00;9.80;;;;;;5021679;28;34231;-75
2022/07/09 01:16:34;;;;;;;1.38;1.23;;;13.90;10.00;;;;;;5048069;28;36375;-75
2022/07/09 01:19:01;;;;;;;1.13;1.00;;;13.90;11.50;;;;;;5019648;28;34306;-75
2022/07/09 01:21:27;;;;;;;1.33;1.02;;;13.90;9.90;;;;;;5019716;28;34179;-76
2022/07/09 01:23:53;;;;;;;2.58;1.20;;;13.90;10.00;;;;;;5003615;28;34056;-75
2022/07/09 01:26:19;;;;;;;0.98;0.98;;;13.80;10.00;;;;;;5020608;28;35266;-75
2022/07/09 01:28:46;;;;;;;3.80;1.23;;;13.80;10.10;;;;;;5019932;28;34492;-76
2022/07/09 01:31:12;;;;;;;1.30;1.20;;;13.80;10.20;;;;;;5003692;28;34047;-75
2022/07/09 01:33:39;;;;;;;1.80;1.08;;;13.80;10.20;;;;;;5003153;28;34169;-75
2022/07/09 01:36:06;;;;;;;1.35;1.25;;;13.70;10.20;;;;;;4986424;28;35721;-76
2022/07/09 01:38:32;;;;;;;1.50;1.17;;;13.70;10.40;;;;;;4986302;28;34203;-75
2022/07/09 01:40:58;;;;;;;2.28;0.90;;;13.70;10.40;;;;;;4986672;28;34233;-75
2022/07/09 01:43:25;;;;;;;1.27;1.20;;;13.60;10.40;;;;;;5019504;28;34476;-76
2022/07/09 01:45:51;;;;;;;1.73;1.13;;;13.60;10.50;;;;;;5040060;28;34398;-76
2022/07/09 01:48:17;;;;;;;1.08;0.98;;;13.60;10.50;;;;;;5040616;28;34595;-76
2022/07/09 01:50:43;;;;;;;1.65;1.20;;;13.50;10.70;;;;;;5022783;28;34127;-75
2022/07/09 01:53:09;;;;;;;1.20;1.10;;;13.50;10.80;;;;;;5055878;28;34418;-76
2022/07/09 01:55:36;;;;;;;1.08;1.08;;;13.40;11.00;;;;;;5018538;28;36551;-75
2022/07/09 01:58:02;;;;;;;1.42;1.17;;;13.40;11.10;;;;;;5022504;28;34110;-76
2022/07/09 02:00:29;;;;;;;1.00;1.00;;;13.40;11.10;;;;;;5022602;28;34228;-76
2022/07/09 02:02:55;;;;;;;2.92;0.98;;;13.40;11.10;;;;;;5039257;28;34111;-76
2022/07/09 02:05:21;;;;;;;1.10;1.00;;;13.40;11.10;;;;;;5021821;28;35930;-76
2022/07/09 02:07:48;;;;;;;2.17;1.20;;;13.40;11.10;;;;;;5021293;28;34097;-76
2022/07/09 02:10:15;;;;;;;3.00;1.20;;;13.40;11.10;;;;;;5018634;28;34170;-76
2022/07/09 02:12:41;;;;;;;4.18;1.00;;;13.40;11.10;;;;;;5005432;28;34647;-76
2022/07/09 02:15:08;;;;;;;1.35;1.25;;;13.30;11.20;;;;;;5022128;27;35723;-76
2022/07/09 02:17:34;;;;;;;1.08;1.00;;;13.30;11.20;;;;;;4989492;28;34171;-76
2022/07/09 02:20:00;;;;;;;1.38;1.27;;;13.30;11.30;;;;;;5005495;28;34104;-76
2022/07/09 02:22:27;;;;;;;1.75;1.20;;;13.30;11.20;;;;;;5005791;28;34334;-76
2022/07/09 02:24:53;;;;;;;1.10;1.00;;;13.30;11.20;;;;;;5005262;28;35699;-76
2022/07/09 02:27:19;;;;;;;1.50;1.13;;;13.20;11.30;;;;;;5038148;28;34398;-75
2022/07/09 02:29:45;;;;;;;2.30;0.88;;;13.20;11.40;;;;;;5005380;28;34207;-76
2022/07/09 02:32:11;;;;;;;1.50;1.10;;;13.20;11.50;;;;;;5037776;28;34414;-76
2022/07/09 02:34:38;;;;;;;1.30;1.20;;;13.20;11.60;;;;;;5038545;28;34290;-76
2022/07/09 02:37:06;;;;;;;2.17;1.13;;;13.20;11.70;;;;;;5038281;28;34258;-75
2022/07/09 02:39:32;;;;;;;1.70;1.60;;;13.20;11.90;;;;;;5005603;28;34202;-76
2022/07/09 02:41:58;;;;;;;1.38;1.20;;;13.10;11.70;;;;;;5005583;28;34057;-75
2022/07/09 02:44:24;;;;;;;1.30;1.20;;;13.20;11.80;;;;;;5004803;28;35562;-76
2022/07/09 02:46:50;;;;;;;2.28;1.20;;;13.10;11.90;;;;;;5005261;28;34165;-76
2022/07/09 02:49:15;;;;;;;1.00;1.00;;;13.20;12.40;;;;;;5004712;28;34089;-76
2022/07/09 02:51:41;;;;;;;1.20;1.00;;;13.20;11.90;;;;;;5022259;28;34210;-76
2022/07/09 02:54:07;;;;;;;1.58;1.30;;;13.10;12.00;;;;;;5042464;28;34532;-76
2022/07/09 02:56:33;;;;;;;2.95;1.90;;;13.10;12.10;;;;;;5037691;28;34307;-76
2022/07/09 02:58:59;;;;;;;1.42;1.33;;;13.10;12.20;;;;;;5021392;28;34119;-76
2022/07/09 03:01:25;;;;;;;1.45;1.35;;;13.10;12.20;;;;;;5012355;28;34301;-75
2022/07/09 03:03:52;;;;;;;1.85;1.13;;;13.10;12.20;;;;;;5002867;28;34202;-76
2022/07/09 03:06:18;;;;;;;1.48;1.38;;;13.10;12.30;;;;;;5006553;28;34532;-75
2022/07/09 03:08:44;;;;;;;2.42;1.30;;;13.10;12.30;;;;;;5034711;28;34299;-76
2022/07/09 03:11:10;;;;;;;4.38;1.48;;;13.10;12.30;;;;;;5002439;28;34154;-75
2022/07/09 03:13:36;;;;;;;3.10;1.27;;;13.10;12.40;;;;;;5002473;28;34309;-76
2022/07/09 03:16:03;;;;;;;1.42;1.33;;;13.10;12.50;;;;;;5002935;28;34130;-76
2022/07/09 03:18:29;;;;;;;1.20;1.10;;;13.00;12.40;;;;;;5001062;28;34219;-76
2022/07/09 03:20:55;;;;;;;2.35;1.30;;;13.00;12.50;;;;;;5001558;28;34433;-75
2022/07/09 03:23:21;;;;;;;2.95;1.20;;;13.00;12.60;;;;;;5001443;28;35896;-76
2022/07/09 03:25:47;;;;;;;1.17;1.10;;;13.00;12.70;;;;;;4985370;28;34165;-76
2022/07/09 03:28:13;;;;;;;1.35;1.17;;;12.90;12.70;;;;;;5002578;28;34033;-76
2022/07/09 03:30:39;;;;;;;2.13;1.33;;;12.90;12.60;;;;;;5020765;28;34198;-75
2022/07/09 03:33:05;;;;;;;3.78;1.58;;;12.90;12.70;;;;;;5007410;28;35212;-76
2022/07/09 03:35:31;;;;;;;1.23;1.10;;;12.90;12.70;;;;;;5016792;28;34244;-76
2022/07/09 03:37:57;;;;;;;1.38;1.27;;;12.90;12.70;;;;;;5012165;28;34439;-76
2022/07/09 03:40:23;;;;;;;1.30;1.30;;;12.90;12.70;;;;;;5017819;28;34088;-75
2022/07/09 03:42:49;;;;;;;3.33;1.20;;;12.90;12.70;;;;;;5004558;28;35573;-75
2022/07/09 03:45:14;;;;;;;1.90;1.40;;;12.80;12.70;;;;;;5004380;28;34287;-76
2022/07/09 03:47:40;;;;;;;2.53;1.50;;;12.80;12.70;;;;;;5004580;28;34115;-76
2022/07/09 03:50:07;;;;;;;2.22;1.30;;;12.80;12.70;;;;;;5018592;28;34466;-75
2022/07/09 03:52:33;;;;;;;2.08;1.60;;;12.80;12.70;;;;;;5021758;28;34928;-75
2022/07/09 03:54:59;;;;;;;2.72;1.13;;;12.80;12.70;;;;;;5004573;28;34332;-76
2022/07/09 03:57:26;;;;;;;2.35;1.20;;;12.80;12.80;;;;;;5017419;28;34257;-76
2022/07/09 03:59:52;;;;;;;4.47;1.20;;;12.80;12.80;;;;;;5008184;28;34106;-75
2022/07/09 04:02:17;;;;;;;1.40;1.30;;;12.80;12.70;;;;;;5021784;28;34814;-76
2022/07/09 04:04:43;;;;;;;1.70;1.27;;;12.80;12.80;;;;;;5020657;28;34079;-76
2022/07/09 04:07:10;;;;;;;3.42;1.30;;;12.80;12.80;;;;;;5021692;28;34314;-75
2022/07/09 04:09:36;;;;;;;1.60;1.50;;;12.90;12.90;;;;;;5020575;28;34036;-75
2022/07/09 04:12:02;;;;;;;1.85;1.27;;;12.90;12.80;;;;;;5004087;28;36082;-76
2022/07/09 04:14:28;;;;;;;1.75;1.48;;;12.90;12.90;;;;;;5016043;28;34291;-75
2022/07/09 04:16:54;;;;;;;2.63;1.65;;;12.90;12.90;;;;;;5042160;28;34214;-76
2022/07/09 04:19:20;;;;;;;2.15;1.45;;;12.90;13.00;;;;;;5020470;28;34210;-75
2022/07/09 04:21:46;;;;;;;1.92;1.40;;;13.00;13.00;;;;;;5003877;28;35710;-75
2022/07/09 04:24:12;;;;;;;2.72;1.52;;;13.00;13.00;;;;;;5004202;28;34259;-76
2022/07/09 04:26:38;;;;;;;1.30;1.20;;;13.10;13.00;;;;;;5020237;28;34198;-76
2022/07/09 04:29:04;;;;;;;1.30;1.20;;;13.10;13.00;;;;;;4999375;28;34164;-76
2022/07/09 04:31:30;;;;;;;2.85;1.50;;;13.10;13.00;;;;;;5014912;28;35517;-76
2022/07/09 04:33:55;;;;;;;1.55;1.45;;;13.20;12.90;;;;;;5016103;28;34274;-75
2022/07/09 04:36:21;;;;;;;1.50;1.40;;;13.20;13.00;;;;;;5015355;28;34340;-75
2022/07/09 04:38:48;;;;;;;1.40;1.30;;;13.20;13.00;;;;;;5016170;28;34427;-76
2022/07/09 04:41:14;;;;;;;2.47;1.90;;;13.20;13.00;;;;;;5015412;28;36428;-75
2022/07/09 04:43:40;;;;;;;1.52;1.40;;;13.20;13.10;;;;;;5018308;28;34186;-75
2022/07/09 04:46:06;;;;;;;1.30;1.20;;;13.20;13.20;;;;;;5018767;28;34469;-75
2022/07/09 04:48:33;;;;;;;2.03;1.33;;;13.20;13.20;;;;;;5018543;28;34427;-76
2022/07/09 04:50:59;;;;;;;2.55;1.38;;;13.30;13.30;;;;;;5033352;28;34409;-75
2022/07/09 04:53:25;;;;;;;2.03;1.60;;;13.30;13.80;;;;;;5018056;28;34506;-75
2022/07/09 04:55:51;;;;;;;2.75;1.45;;;13.40;13.30;;;;;;4997454;28;34374;-76
2022/07/09 04:58:17;;;;;;;2.58;1.40;;;13.40;13.30;;;;;;4988941;28;34093;-75
2022/07/09 05:00:43;;;;;;;1.58;1.20;;;13.50;13.40;;;;;;4980628;28;34222;-75
2022/07/09 05:03:09;;;;;;;2.15;1.60;;;13.50;13.30;;;;;;4981258;28;34044;-75
2022/07/09 05:05:36;;;;;;;1.50;1.40;;;13.60;13.30;;;;;;5013349;28;34268;-75
2022/07/09 05:08:02;;;;;;;2.28;1.42;;;13.70;13.40;;;;;;4981380;28;34069;-75
2022/07/09 05:10:28;;;;;;;3.20;1.58;;;13.70;13.30;;;;;;5012258;28;35545;-75
2022/07/09 05:12:54;;;;;;;2.15;1.58;;;13.80;13.30;;;;;;4999635;28;34159;-75
2022/07/09 05:15:20;;;;;;;2.15;1.50;;;13.90;13.30;;;;;;4983534;28;34123;-75
2022/07/09 05:17:45;;;;;;;3.63;1.80;;;14.00;13.20;;;;;;4983020;28;34374;-75
2022/07/09 05:20:11;;;;;;;3.65;1.95;;;14.10;13.20;;;;;;4982519;28;35496;-75
2022/07/09 05:22:38;;;;;;;3.58;1.90;;;14.20;13.10;;;;;;4999858;28;34425;-75
2022/07/09 05:25:05;;;;;;;2.10;1.90;;;14.50;13.10;;;;;;5000835;28;34339;-75
2022/07/09 05:27:32;;;;;;;3.00;1.70;;;15.10;12.90;;;;;;4999592;28;34600;-75
2022/07/09 05:29:58;;;;;;;4.53;1.75;;;15.90;11.90;;;;;;5000317;28;34196;-75
2022/07/09 05:32:24;;;;;;;4.95;1.88;;;16.80;10.40;;;;;;4999238;28;34129;-75
2022/07/09 05:34:50;;;;;;;1.50;1.40;;;17.80;9.10;;;;;;4999278;28;34100;-76
2022/07/09 05:37:16;;;;;;;1.58;1.48;;;18.60;8.00;;;;;;4997022;28;34183;-75
2022/07/09 05:39:42;;;;;;;2.25;1.63;;;19.40;7.00;;;;;;4980635;28;34890;-75
2022/07/09 05:42:08;;;;;;;1.85;1.60;;;20.10;6.20;;;;;;4996264;28;34245;-76
2022/07/09 05:44:34;;;;;;;4.07;1.63;;;20.60;5.50;;;;;;5006946;28;35910;-76
2022/07/09 05:47:01;;;;;;;1.88;1.40;;;21.10;4.90;;;;;;5015159;28;34183;-76
2022/07/09 05:49:28;;;;;;;1.40;1.30;;;21.60;4.20;;;;;;4998529;28;35860;-76
2022/07/09 05:51:53;;;;;;;5.55;1.58;;;22.00;3.80;;;;;;4998218;28;34343;-76
2022/07/09 05:54:19;;;;;;;2.05;1.33;;;22.30;3.50;;;;;;5021586;28;34496;-76
2022/07/09 05:56:45;;;;;;;1.67;1.38;;;22.50;3.20;;;;;;5046850;27;34206;-76
2022/07/09 05:59:12;;;;;;;2.25;1.60;;;22.60;3.00;;;;;;5068273;27;36311;-76
2022/07/09 06:01:41;;;;;;;1.75;1.60;;;22.70;2.90;;;;;;5032769;27;34455;-76
2022/07/09 06:04:08;;;;;;;1.80;1.70;;;23.10;2.70;;;;;;5077121;27;34189;-77
2022/07/09 06:06:35;;;;;;;5.05;1.60;;;23.40;2.10;;;;;;5030611;27;34178;-76
2022/07/09 06:09:01;;;;;;;1.83;1.33;;;23.70;1.80;;;;;;5020051;28;34458;-76
2022/07/09 06:11:27;;;;;;;2.75;1.50;;;24.10;1.30;;;;;;5035711;27;34195;-77
2022/07/09 06:13:53;;;;;;;2.67;1.67;;;24.50;1.00;;;;;;5123475;27;34106;-76
2022/07/09 06:16:20;;;;;;;2.10;1.40;;;24.80;1.00;;;;;;5080694;27;34194;-77
2022/07/09 06:18:46;;;;;;;2.70;1.58;;;25.10;1.00;;;;;;5020123;28;35210;-76
2022/07/09 06:21:12;;;;;;;1.52;1.42;;;25.10;1.00;;;;;;5019776;28;34352;-77
2022/07/09 06:23:38;;;;;;;3.30;1.60;;;25.30;1.00;;;;;;5019020;28;34303;-76
2022/07/09 06:26:04;;;;;;;3.95;1.58;;;25.50;1.00;;;;;;5019099;28;34181;-76
2022/07/09 06:28:30;;;;;;;2.60;1.40;;;25.70;1.00;;;;;;5002208;28;35901;-76
2022/07/09 06:30:56;;;;;;;1.95;1.52;;;25.80;1.00;;;;;;5019077;28;34057;-76
2022/07/09 06:33:22;;;;;;;2.30;1.20;;;26.00;1.00;;;;;;5001994;28;34193;-77
2022/07/09 06:35:48;;;;;;;1.90;1.40;;;26.20;1.00;;;;;;4986947;28;34431;-76
2022/07/09 06:38:14;;;;;;;1.63;1.52;;;26.60;1.00;;;;;;5018532;28;35572;-77
2022/07/09 06:40:39;;;;;;;2.70;1.80;;;27.00;1.00;;;;;;5019060;28;34259;-77
2022/07/09 06:43:05;;;;;;;4.28;1.60;;;27.50;1.00;;;;;;5009167;28;34136;-77
2022/07/09 06:45:31;;;;;;;2.88;2.08;;;27.70;1.00;;;;;;5038806;28;34504;-77
2022/07/09 06:47:57;;;;;;;2.22;1.80;;;27.40;1.00;;;;;;5019008;28;36563;-76
2022/07/09 06:50:23;;;;;;;3.42;1.50;;;27.20;1.00;;;;;;5070822;27;34254;-77
2022/07/09 06:52:49;;;;;;;4.55;1.70;;;27.40;1.00;;;;;;5067878;27;34321;-77
2022/07/09 06:55:15;;;;;;;1.90;1.33;;;27.60;1.00;;;;;;5093744;27;34830;-77
2022/07/09 06:57:41;;;;;;;3.40;1.40;;;27.70;1.00;;;;;;5026636;28;35053;-77
2022/07/09 07:00:08;;;;;;;2.80;1.63;;;27.60;1.00;;;;;;5026549;28;34119;-78
2022/07/09 07:02:33;;;;;;;3.15;1.83;;;27.50;1.00;;;;;;5026081;28;34368;-77
2022/07/09 07:05:00;;;;;;;7.07;1.73;;;27.60;1.00;;;;;;5043998;28;34108;-77
2022/07/09 07:07:25;;;;;;;2.08;1.58;;;27.40;1.00;;;;;;5009111;28;35929;-77
2022/07/09 07:09:51;;;;;;;1.88;1.48;;;27.30;1.00;;;;;;5025722;28;34235;-77
2022/07/09 07:12:17;;;;;;;3.47;1.38;;;27.60;1.00;;;;;;5026300;28;34246;-78
2022/07/09 07:14:43;;;;;;;2.20;1.58;;;27.70;1.00;;;;;;5009196;28;34155;-77
2022/07/09 07:17:09;;;;;;;1.75;1.58;;;27.50;1.00;;;;;;5009146;28;35632;-77
2022/07/09 07:19:35;;;;;;;2.42;1.45;;;27.50;1.00;;;;;;5009998;28;34155;-77
2022/07/09 07:22:01;;;;;;;2.05;1.40;;;27.80;1.00;;;;;;5043773;28;34044;-77
2022/07/09 07:24:30;;;;;;;2.45;1.48;;;28.10;1.00;;;;;;5025806;28;34081;-78
2022/07/09 07:26:56;;;;;;;3.53;1.48;;;28.10;1.00;;;;;;5010005;28;35654;-78
2022/07/09 07:29:22;;;;;;;3.35;1.52;;;28.20;1.00;;;;;;5042771;28;34449;-77
2022/07/09 07:31:49;;;;;;;2.70;1.30;;;28.30;1.00;;;;;;5010304;28;34107;-77
2022/07/09 07:34:15;;;;;;;1.88;1.67;;;28.40;1.00;;;;;;5025503;28;34145;-78
2022/07/09 07:36:41;;;;;;;3.85;1.60;;;28.20;1.00;;;;;;5038130;28;34166;-77
2022/07/09 07:39:07;;;;;;;3.75;1.40;;;28.10;1.00;;;;;;5024249;28;34045;-77
2022/07/09 07:41:33;;;;;;;1.75;1.30;;;28.20;1.00;;;;;;5024405;28;33644;-77
2022/07/09 07:43:59;;;;;;;1.70;1.40;;;28.40;1.00;;;;;;5038611;28;34081;-77
2022/07/09 07:46:25;;;;;;;1.48;1.30;;;28.50;1.00;;;;;;5039281;28;35745;-77
2022/07/09 07:48:51;;;;;;;2.80;1.60;;;28.50;1.00;;;;;;5047250;28;34222;-77
2022/07/09 07:51:16;;;;;;;5.18;1.70;;;28.60;1.00;;;;;;5037251;28;34193;-78
2022/07/09 07:53:43;;;;;;;3.63;1.50;;;28.50;1.00;;;;;;5028172;28;34087;-77
2022/07/09 07:56:10;;;;;;;3.60;1.10;;;28.70;1.00;;;;;;5027144;28;35658;-78
2022/07/09 07:58:37;;;;;;;2.63;1.40;;;29.00;1.00;;;;;;5067303;27;34062;-78
2022/07/09 08:01:04;;;;;;;3.72;1.65;;;29.30;1.00;;;;;;5081983;27;34385;-78
2022/07/09 08:03:30;;;;;;;1.73;1.35;;;29.20;1.00;;;;;;5085090;27;34227;-78
2022/07/09 08:05:56;;;;;;;2.00;1.50;;;29.20;1.00;;;;;;5062951;27;35489;-77
2022/07/09 08:08:22;;;;;;;3.35;1.20;;;29.30;1.00;;;;;;5080091;27;34438;-80
2022/07/09 08:10:48;;;;;;;2.85;1.25;;;29.40;1.00;;;;;;5047502;27;34135;-78
2022/07/09 08:13:15;;;;;;;7.88;1.00;;;29.70;1.00;;;;;;5018960;28;34302;-79
2022/07/09 08:15:41;;;;;;;5.18;1.40;;;30.00;1.00;;;;;;5032788;28;34936;-78
2022/07/09 08:18:11;;;;;;;8.95;1.30;;;30.20;1.00;;;;;;5013719;28;34385;-78
2022/07/09 08:20:39;;;;;;;4.20;1.30;;;30.20;1.00;;;;;;5015115;28;34376;-79
2022/07/09 08:23:06;;;;;;;1.55;1.20;;;30.20;1.00;;;;;;5015901;28;34168;-78
2022/07/09 08:25:32;;;;;;;5.20;1.02;;;30.20;1.00;;;;;;5014459;28;36024;-78
2022/07/09 08:27:58;;;;;;;3.63;0.90;;;30.50;1.00;;;;;;5042459;28;34344;-79
2022/07/09 08:30:24;;;;;;;0.80;0.80;;;30.80;1.00;;;;;;5038235;28;34142;-78
2022/07/09 08:32:50;;;;;;;2.80;1.02;;;31.00;1.00;;;;;;5054248;28;34392;-80
2022/07/09 08:35:16;;;;;;;2.40;0.82;;;31.00;1.00;;;;;;5014837;28;35799;-79
2022/07/09 08:37:42;;;;;;;2.75;0.90;;;30.70;1.00;;;;;;5041832;28;34084;-78
2022/07/09 08:40:08;;;;;;;1.02;0.63;;;30.40;1.00;;;;;;5005254;28;34219;-79
2022/07/09 08:42:34;;;;;;;1.10;1.00;;;30.40;1.00;;;;;;5047670;28;34654;-79
2022/07/09 08:45:02;;;;;;;1.63;0.90;;;30.40;1.00;;;;;;5050108;28;35560;-80
2022/07/09 08:47:30;;;;;;;0.68;0.63;;;30.60;1.00;;;;;;5013717;28;34071;-78
2022/07/09 08:50:00;;;;;;;0.60;0.60;;;30.30;1.00;;;;;;5032109;28;34246;-78
2022/07/09 08:52:27;;;;;;;1.20;0.80;;;30.20;1.00;;;;;;5033798;28;33922;-78
2022/07/09 08:54:54;;;;;;;4.88;1.00;;;30.30;1.00;;;;;;5031039;28;35325;-79
2022/07/09 08:57:19;;;;;;;2.08;1.00;;;30.20;1.00;;;;;;5047989;28;34436;-78
2022/07/09 08:59:45;;;;;;;1.20;0.70;;;30.20;1.00;;;;;;5017758;28;34204;-78
2022/07/09 09:02:13;;;;;;;1.02;0.80;;;30.20;1.00;;;;;;5000309;28;34278;-78
2022/07/09 09:04:39;;;;;;;2.50;0.77;;;30.50;1.00;;;;;;5040510;28;34172;-77
2022/07/09 09:07:14;;;;;;;0.73;0.70;;;30.90;1.00;;;;;;5012405;28;34104;-78
2022/07/09 09:09:41;;;;;;;0.90;0.68;;;31.50;1.00;;;;;;5029428;28;34212;-77
2022/07/09 09:12:08;;;;;;;1.42;0.68;;;31.40;1.00;;;;;;5021299;28;33811;-79
2022/07/09 09:14:33;;;;;;;0.85;0.45;;;31.40;1.00;;;;;;4993853;28;35762;-79
2022/07/09 09:17:15;;;;;;;1.05;0.50;;;31.70;1.00;;;;;;5030436;28;34457;-79
2022/07/09 09:19:41;;;;;;;0.60;0.60;;;31.50;1.00;;;;;;5059274;28;34102;-78
2022/07/09 09:22:08;;;;;;;0.50;0.50;;;31.20;1.00;;;;;;5018539;28;34567;-77
2022/07/09 09:24:34;;;;;;;0.40;0.40;;;31.20;1.00;;;;;;4993924;28;35913;-79
2022/07/09 09:27:02;;;;;;;0.40;0.40;;;31.20;1.00;;;;;;5023332;28;34409;-78
2022/07/09 09:29:28;;;;;;;1.25;0.30;;;31.00;1.00;;;;;;5023959;28;34251;-79
2022/07/09 09:31:56;;;;;;;0.55;0.50;;;30.80;1.00;;;;;;5029536;28;34472;-78
2022/07/09 09:34:23;;;;;;;0.70;0.40;;;30.50;1.00;;;;;;5014787;28;36041;-78
2022/07/09 09:36:51;;;;;;;1.80;0.43;;;30.40;1.00;;;;;;5013976;28;34254;-78
2022/07/09 09:39:28;;;;;;;1.40;0.60;;;30.50;1.00;;;;;;5034322;28;34162;-80
2022/07/09 09:41:56;;;;;;;1.45;0.50;;;30.80;1.00;;;;;;5008160;28;34584;-79
2022/07/09 09:44:37;;;;;;;0.47;0.40;;;31.20;1.00;;;;;;5055038;28;35851;-77
2022/07/09 09:47:05;;;;;;;1.05;0.55;;;31.40;1.00;;;;;;5030237;28;34317;-78
2022/07/09 09:49:31;;;;;;;1.30;0.50;;;31.40;1.00;;;;;;5024313;28;34961;-78
2022/07/09 09:52:05;;;;;;;0.90;0.63;;;31.20;1.00;;;;;;5007408;28;34138;-77
2022/07/09 09:54:33;;;;;;;1.05;0.70;;;31.00;1.00;;;;;;5016282;28;34397;-79
2022/07/09 09:57:00;;;;;;;1.08;0.50;;;30.70;1.00;;;;;;4990672;28;34397;-78
2022/07/09 09:59:26;;;;;;;0.52;0.52;;;30.60;1.00;;;;;;4981066;28;34156;-77
2022/07/09 10:01:52;;;;;;;0.55;0.50;;;30.50;1.00;;;;;;4980636;28;34189;-77
2022/07/09 10:04:18;;;;;;;0.85;0.50;;;30.50;1.00;;;;;;4991473;28;34411;-77
2022/07/09 10:06:45;;;;;;;0.60;0.50;;;30.40;1.00;;;;;;4997206;28;34234;-78
2022/07/09 10:09:13;;;;;;;0.52;0.52;;;30.20;1.00;;;;;;5012211;28;34070;-78
2022/07/09 10:11:41;;;;;;;0.85;0.50;;;30.20;1.00;;;;;;5001628;27;34623;-78
2022/07/09 10:14:07;;;;;;;1.30;0.70;;;30.50;1.00;;;;;;5026672;28;35702;-78
2022/07/09 10:16:37;;;;;;;0.60;0.52;;;30.90;1.00;;;;;;5025183;28;34488;-79
2022/07/09 10:19:03;;;;;;;0.52;0.52;;;31.30;1.00;;;;;;5000401;28;34396;-78
2022/07/09 10:21:35;;;;;;;0.70;0.70;;;31.70;1.00;;;;;;4996744;28;34535;-77
2022/07/09 10:24:03;;;;;;;0.73;0.68;;;32.00;1.00;;;;;;5033039;28;35646;-80
2022/07/09 10:26:46;;;;;;;1.30;0.70;;;32.10;1.00;;;;;;5024914;27;34284;-78
2022/07/09 10:29:28;;;;;;;0.82;0.50;;;32.40;1.00;;;;;;5070138;28;34330;-79
2022/07/09 10:31:56;;;;;;;2.85;0.63;;;32.30;1.00;;;;;;4998733;28;34350;-78
2022/07/09 10:34:57;;;;;;;2.13;0.50;;;32.10;1.00;;;;;;4996820;28;36451;-78
2022/07/09 10:37:32;;;;;;;0.80;0.70;;;31.80;1.00;;;;;;5017997;28;34215;-78
2022/07/09 10:40:15;;;;;;;2.50;0.73;;;31.40;1.00;;;;;;5028304;27;34148;-78
2022/07/09 10:42:43;;;;;;;0.57;0.57;;;31.00;1.00;;;;;;5036625;28;34337;-78
2022/07/09 10:45:26;;;;;;;0.60;0.60;;;30.80;1.00;;;;;;4982130;28;35620;-78
2022/07/09 10:47:54;;;;;;;0.50;0.50;;;30.90;1.00;;;;;;5009512;28;33840;-77
2022/07/09 10:50:21;;;;;;;0.50;0.50;;;31.10;1.00;;;;;;5012378;28;34143;-79
2022/07/09 10:52:48;;;;;;;1.20;0.68;;;31.30;1.00;;;;;;5028046;28;34401;-79
2022/07/09 10:55:17;;;;;;;5.40;0.80;;;31.70;1.00;;;;;;4992880;28;35818;-80
2022/07/09 10:57:43;;;;;;;0.60;0.60;;;31.80;1.00;;;;;;5096173;27;34283;-79
2022/07/09 11:00:13;;;;;;;1.27;0.65;;;31.80;1.00;;;;;;5098456;27;34343;-78
2022/07/09 11:02:50;;;;;;;0.77;0.77;;;31.90;1.00;;;;;;5105983;27;34284;-79
2022/07/09 11:05:15;;;;;;;1.50;0.77;;;32.20;1.00;;;;;;5096714;27;35651;-80
2022/07/09 11:07:41;;;;;;;0.50;0.50;;;32.40;1.00;;;;;;5088401;27;34333;-78
2022/07/09 11:10:18;;;;;;;0.50;0.50;;;32.50;1.00;;;;;;5087843;28;34076;-79
2022/07/09 11:12:48;;;;;;;0.75;0.75;;;32.70;1.00;;;;;;5088590;28;34437;-82
2022/07/09 11:15:19;;;;;;;0.73;0.50;;;32.70;1.00;;;;;;5095301;28;35869;-78
2022/07/09 11:17:58;;;;;;;0.75;0.75;;;32.90;1.00;;;;;;5101242;27;34242;-78
2022/07/09 11:20:25;;;;;;;0.60;0.60;;;32.70;1.00;;;;;;5091117;27;34377;-78
2022/07/09 11:22:51;;;;;;;0.68;0.68;;;32.50;1.00;;;;;;5078073;28;34420;-77
2022/07/09 11:25:18;;;;;;;0.85;0.63;;;32.40;1.00;;;;;;5097409;27;34193;-78
2022/07/09 11:27:44;;;;;;;0.85;0.60;;;32.10;1.00;;;;;;5098116;28;34270;-79
2022/07/09 11:30:14;;;;;;;2.70;0.73;;;31.80;1.00;;;;;;5106815;28;34206;-79
2022/07/09 11:32:44;;;;;;;0.73;0.68;;;31.50;1.00;;;;;;5100766;28;34444;-78
2022/07/09 11:35:11;;;;;;;0.57;0.57;;;31.30;1.00;;;;;;5080656;28;36221;-78
2022/07/09 11:37:44;;;;;;;2.20;0.90;;;31.10;1.00;;;;;;5102111;27;34409;-78
2022/07/09 11:40:16;;;;;;;1.10;0.60;;;31.10;1.00;;;;;;5099620;27;34204;-79
2022/07/09 11:42:42;;;;;;;0.63;0.63;;;31.50;1.00;;;;;;5106050;28;34280;-80
2022/07/09 11:45:09;;;;;;;0.70;0.70;;;31.60;1.00;;;;;;5105886;28;35811;-78
2022/07/09 11:47:37;;;;;;;2.28;0.63;;;31.70;1.00;;;;;;5103224;28;34253;-78
2022/07/09 11:50:09;;;;;;;0.60;0.60;;;31.80;1.00;;;;;;5127303;27;34349;-77
2022/07/09 11:52:36;;;;;;;1.65;0.75;;;32.10;1.00;;;;;;5119705;27;34089;-79
2022/07/09 11:55:05;;;;;;;1.65;0.70;;;32.30;1.00;;;;;;5076847;28;36559;-79
2022/07/09 11:57:34;;;;;;;0.90;0.68;;;32.50;1.00;;;;;;5025771;28;34333;-78
2022/07/09 12:00:01;;;;;;;1.15;0.60;;;32.60;1.00;;;;;;5043772;28;34200;-77
2022/07/09 12:02:33;;;;;;;0.82;0.82;;;32.50;1.00;;;;;;5021330;28;34197;-77
2022/07/09 12:05:00;;;;;;;1.08;0.70;;;32.30;1.00;;;;;;5011463;28;35810;-77
2022/07/09 12:07:26;;;;;;;0.80;0.80;;;32.00;1.00;;;;;;5055634;28;34180;-77
2022/07/09 12:10:01;;;;;;;1.10;0.70;;;31.80;1.00;;;;;;5021167;28;34172;-78
2022/07/09 12:12:27;;;;;;;0.75;0.57;;;32.00;1.00;;;;;;5017854;28;34072;-78
2022/07/09 12:14:54;;;;;;;1.33;1.27;;;31.90;1.00;;;;;;4994108;28;36442;-76
2022/07/09 12:17:24;;;;;;;1.92;0.88;;;32.10;1.00;;;;;;4992577;28;34448;-79
2022/07/09 12:19:51;;;;;;;1.65;0.70;;;32.30;1.00;;;;;;4999303;28;34354;-79
2022/07/09 12:22:18;;;;;;;0.68;0.68;;;32.50;1.00;;;;;;5041419;27;34107;-78
2022/07/09 12:24:44;;;;;;;1.52;0.63;;;32.60;1.00;;;;;;5000993;28;36583;-79
2022/07/09 12:27:10;;;;;;;0.68;0.68;;;32.60;1.00;;;;;;5017455;28;34360;-79
2022/07/09 12:29:36;;;;;;;1.10;1.02;;;32.50;1.00;;;;;;5002465;28;34549;-78
2022/07/09 12:32:02;;;;;;;1.23;0.70;;;32.30;1.00;;;;;;5006893;28;34490;-80
2022/07/09 12:34:28;;;;;;;3.30;0.70;;;32.20;1.00;;;;;;5004441;28;36464;-78
2022/07/09 12:36:54;;;;;;;1.50;0.80;;;31.90;1.00;;;;;;5023327;28;34320;-78
2022/07/09 12:39:20;;;;;;;0.77;0.75;;;31.70;1.00;;;;;;5021698;28;34203;-79
2022/07/09 12:41:47;;;;;;;4.07;0.70;;;31.60;1.00;;;;;;5022610;28;34265;-78
2022/07/09 12:44:12;;;;;;;2.45;0.90;;;31.60;1.00;;;;;;5011239;28;35619;-79
2022/07/09 12:46:39;;;;;;;0.90;0.90;;;31.50;1.00;;;;;;5050831;28;34344;-79
2022/07/09 12:49:05;;;;;;;0.70;0.70;;;31.60;1.00;;;;;;5020195;28;34093;-78
2022/07/09 12:51:30;;;;;;;1.40;0.70;;;31.60;1.00;;;;;;5000653;28;34114;-78